sensor_id;sensor_type;location;lat;lon;timestamp;temperature;humidity
68556;HTU21D;55544;51.032;5.866;2022-07-22T00:02:10;19.13;79.84
68556;HTU21D;55544;51.032;5.866;2022-07-22T00:04:36;19.16;79.82
68556;HTU21D;55544;51.032;5.866;2022-07-22T00:07:01;19.18;79.48
68556;HTU21D;55544;51.032;5.866;2022-07-22T00:09:27;19.16;79.68
68556;HTU21D;55544;51.032;5.866;2022-07-22T00:11:53;19.18;79.70
68556;HTU21D;55544;51.032;5.866;2022-07-22T00:14:19;19.20;79.75
68556;HTU21D;55544;51.032;5.866;2022-07-22T00:16:44;19.23;79.53
68556;HTU21D;55544;51.032;5.866;2022-07-22T00:19:10;19.22;79.29
68556;HTU21D;55544;51.032;5.866;2022-07-22T00:21:36;19.23;79.27
68556;HTU21D;55544;51.032;5.866;2022-07-22T00:24:02;19.24;79.20
68556;HTU21D;55544;51.032;5.866;2022-07-22T00:26:28;19.23;78.89
68556;HTU21D;55544;51.032;5.866;2022-07-22T00:28:54;19.22;78.97
68556;HTU21D;55544;51.032;5.866;2022-07-22T00:31:20;19.25;79.03
68556;HTU21D;55544;51.032;5.866;2022-07-22T00:33:45;19.25;78.81
68556;HTU21D;55544;51.032;5.866;2022-07-22T00:36:11;19.23;78.69
68556;HTU21D;55544;51.032;5.866;2022-07-22T00:38:38;19.20;78.93
68556;HTU21D;55544;51.032;5.866;2022-07-22T00:41:03;19.21;78.94
68556;HTU21D;55544;51.032;5.866;2022-07-22T00:43:59;19.22;78.69
68556;HTU21D;55544;51.032;5.866;2022-07-22T00:46:25;19.23;78.57
68556;HTU21D;55544;51.032;5.866;2022-07-22T00:48:52;19.23;78.47
68556;HTU21D;55544;51.032;5.866;2022-07-22T00:51:20;19.26;78.28
68556;HTU21D;55544;51.032;5.866;2022-07-22T00:53:46;19.28;78.19
68556;HTU21D;55544;51.032;5.866;2022-07-22T00:56:13;19.27;78.10
68556;HTU21D;55544;51.032;5.866;2022-07-22T00:58:39;19.29;78.14
68556;HTU21D;55544;51.032;5.866;2022-07-22T01:01:05;19.29;78.18
68556;HTU21D;55544;51.032;5.866;2022-07-22T01:03:31;19.30;78.08
68556;HTU21D;55544;51.032;5.866;2022-07-22T01:05:57;19.33;77.95
68556;HTU21D;55544;51.032;5.866;2022-07-22T01:08:23;19.33;77.76
68556;HTU21D;55544;51.032;5.866;2022-07-22T01:10:49;19.33;77.73
68556;HTU21D;55544;51.032;5.866;2022-07-22T01:13:15;19.37;77.67
68556;HTU21D;55544;51.032;5.866;2022-07-22T01:15:40;19.37;77.65
68556;HTU21D;55544;51.032;5.866;2022-07-22T01:18:06;19.39;77.55
68556;HTU21D;55544;51.032;5.866;2022-07-22T01:20:34;19.38;77.63
68556;HTU21D;55544;51.032;5.866;2022-07-22T01:23:00;19.38;77.51
68556;HTU21D;55544;51.032;5.866;2022-07-22T01:25:26;19.40;77.45
68556;HTU21D;55544;51.032;5.866;2022-07-22T01:27:52;19.40;77.28
68556;HTU21D;55544;51.032;5.866;2022-07-22T01:30:18;19.40;77.18
68556;HTU21D;55544;51.032;5.866;2022-07-22T01:32:44;19.37;77.44
68556;HTU21D;55544;51.032;5.866;2022-07-22T01:35:10;19.36;77.70
68556;HTU21D;55544;51.032;5.866;2022-07-22T01:37:35;19.35;77.86
68556;HTU21D;55544;51.032;5.866;2022-07-22T01:40:02;19.35;77.78
68556;HTU21D;55544;51.032;5.866;2022-07-22T01:42:28;19.36;77.81
68556;HTU21D;55544;51.032;5.866;2022-07-22T01:44:54;19.35;77.45
68556;HTU21D;55544;51.032;5.866;2022-07-22T01:47:20;19.31;77.54
68556;HTU21D;55544;51.032;5.866;2022-07-22T01:49:45;19.28;77.69
68556;HTU21D;55544;51.032;5.866;2022-07-22T01:52:11;19.28;77.83
68556;HTU21D;55544;51.032;5.866;2022-07-22T01:54:38;19.26;77.83
68556;HTU21D;55544;51.032;5.866;2022-07-22T01:57:04;19.26;77.82
68556;HTU21D;55544;51.032;5.866;2022-07-22T01:59:30;19.23;77.66
68556;HTU21D;55544;51.032;5.866;2022-07-22T02:01:57;19.18;77.76
68556;HTU21D;55544;51.032;5.866;2022-07-22T02:04:23;19.17;77.92
68556;HTU21D;55544;51.032;5.866;2022-07-22T02:06:49;19.14;78.09
68556;HTU21D;55544;51.032;5.866;2022-07-22T02:09:15;19.13;77.98
68556;HTU21D;55544;51.032;5.866;2022-07-22T02:11:44;19.11;78.20
68556;HTU21D;55544;51.032;5.866;2022-07-22T02:14:12;19.11;78.21
68556;HTU21D;55544;51.032;5.866;2022-07-22T02:16:38;19.11;78.21
68556;HTU21D;55544;51.032;5.866;2022-07-22T02:19:05;19.11;78.07
68556;HTU21D;55544;51.032;5.866;2022-07-22T02:21:30;19.07;78.15
68556;HTU21D;55544;51.032;5.866;2022-07-22T02:23:58;19.06;78.38
68556;HTU21D;55544;51.032;5.866;2022-07-22T02:26:24;19.10;78.40
68556;HTU21D;55544;51.032;5.866;2022-07-22T02:28:49;19.10;78.18
68556;HTU21D;55544;51.032;5.866;2022-07-22T02:31:15;19.11;78.06
68556;HTU21D;55544;51.032;5.866;2022-07-22T02:33:41;19.11;77.94
68556;HTU21D;55544;51.032;5.866;2022-07-22T02:36:08;19.13;77.97
68556;HTU21D;55544;51.032;5.866;2022-07-22T02:38:35;19.14;78.05
68556;HTU21D;55544;51.032;5.866;2022-07-22T02:41:01;19.18;77.99
68556;HTU21D;55544;51.032;5.866;2022-07-22T02:43:26;19.24;77.84
68556;HTU21D;55544;51.032;5.866;2022-07-22T02:45:53;19.27;77.77
68556;HTU21D;55544;51.032;5.866;2022-07-22T02:48:19;19.28;77.80
68556;HTU21D;55544;51.032;5.866;2022-07-22T02:50:46;19.30;77.69
68556;HTU21D;55544;51.032;5.866;2022-07-22T02:53:14;19.33;77.60
68556;HTU21D;55544;51.032;5.866;2022-07-22T02:55:40;19.37;77.50
68556;HTU21D;55544;51.032;5.866;2022-07-22T02:58:08;19.38;77.18
68556;HTU21D;55544;51.032;5.866;2022-07-22T03:00:35;19.41;76.92
68556;HTU21D;55544;51.032;5.866;2022-07-22T03:03:01;19.43;76.86
68556;HTU21D;55544;51.032;5.866;2022-07-22T03:05:26;19.44;76.78
68556;HTU21D;55544;51.032;5.866;2022-07-22T03:08:03;19.45;76.62
68556;HTU21D;55544;51.032;5.866;2022-07-22T03:10:29;19.44;76.70
68556;HTU21D;55544;51.032;5.866;2022-07-22T03:12:55;19.45;76.71
68556;HTU21D;55544;51.032;5.866;2022-07-22T03:15:20;19.46;76.74
68556;HTU21D;55544;51.032;5.866;2022-07-22T03:17:46;19.44;76.74
68556;HTU21D;55544;51.032;5.866;2022-07-22T03:20:12;19.41;76.95
68556;HTU21D;55544;51.032;5.866;2022-07-22T03:22:38;19.41;77.08
68556;HTU21D;55544;51.032;5.866;2022-07-22T03:25:05;19.40;77.06
68556;HTU21D;55544;51.032;5.866;2022-07-22T03:27:31;19.40;77.18
68556;HTU21D;55544;51.032;5.866;2022-07-22T03:29:57;19.42;77.14
68556;HTU21D;55544;51.032;5.866;2022-07-22T03:32:22;19.44;77.04
68556;HTU21D;55544;51.032;5.866;2022-07-22T03:34:48;19.44;76.76
68556;HTU21D;55544;51.032;5.866;2022-07-22T03:37:14;19.44;76.66
68556;HTU21D;55544;51.032;5.866;2022-07-22T03:39:42;19.44;76.66
68556;HTU21D;55544;51.032;5.866;2022-07-22T03:42:08;19.45;76.56
68556;HTU21D;55544;51.032;5.866;2022-07-22T03:44:42;19.47;76.34
68556;HTU21D;55544;51.032;5.866;2022-07-22T03:47:08;19.46;76.57
68556;HTU21D;55544;51.032;5.866;2022-07-22T03:49:34;19.45;76.54
68556;HTU21D;55544;51.032;5.866;2022-07-22T03:52:00;19.45;76.53
68556;HTU21D;55544;51.032;5.866;2022-07-22T03:54:25;19.46;76.65
68556;HTU21D;55544;51.032;5.866;2022-07-22T03:56:51;19.47;76.68
68556;HTU21D;55544;51.032;5.866;2022-07-22T03:59:17;19.47;76.67
68556;HTU21D;55544;51.032;5.866;2022-07-22T04:01:43;19.46;76.65
68556;HTU21D;55544;51.032;5.866;2022-07-22T04:04:11;19.43;76.62
68556;HTU21D;55544;51.032;5.866;2022-07-22T04:06:40;19.42;76.76
68556;HTU21D;55544;51.032;5.866;2022-07-22T04:09:16;19.39;76.89
68556;HTU21D;55544;51.032;5.866;2022-07-22T04:11:42;19.40;76.73
68556;HTU21D;55544;51.032;5.866;2022-07-22T04:14:09;19.43;76.55
68556;HTU21D;55544;51.032;5.866;2022-07-22T04:16:35;19.42;76.51
68556;HTU21D;55544;51.032;5.866;2022-07-22T04:19:07;19.38;76.42
68556;HTU21D;55544;51.032;5.866;2022-07-22T04:21:53;19.37;76.49
68556;HTU21D;55544;51.032;5.866;2022-07-22T04:24:21;19.41;76.40
68556;HTU21D;55544;51.032;5.866;2022-07-22T04:26:47;19.42;76.22
68556;HTU21D;55544;51.032;5.866;2022-07-22T04:29:13;19.42;76.17
68556;HTU21D;55544;51.032;5.866;2022-07-22T04:31:40;19.43;76.12
68556;HTU21D;55544;51.032;5.866;2022-07-22T04:34:13;19.46;75.91
68556;HTU21D;55544;51.032;5.866;2022-07-22T04:36:39;19.50;75.81
68556;HTU21D;55544;51.032;5.866;2022-07-22T04:39:04;19.54;75.65
68556;HTU21D;55544;51.032;5.866;2022-07-22T04:41:31;19.58;75.54
68556;HTU21D;55544;51.032;5.866;2022-07-22T04:43:58;19.59;75.35
68556;HTU21D;55544;51.032;5.866;2022-07-22T04:46:26;19.56;75.52
68556;HTU21D;55544;51.032;5.866;2022-07-22T04:48:53;19.52;76.28
68556;HTU21D;55544;51.032;5.866;2022-07-22T04:51:19;19.52;76.58
68556;HTU21D;55544;51.032;5.866;2022-07-22T04:53:48;19.56;76.53
68556;HTU21D;55544;51.032;5.866;2022-07-22T04:56:17;19.59;76.21
68556;HTU21D;55544;51.032;5.866;2022-07-22T04:58:43;19.66;75.86
68556;HTU21D;55544;51.032;5.866;2022-07-22T05:01:09;19.69;75.57
68556;HTU21D;55544;51.032;5.866;2022-07-22T05:03:38;19.73;75.15
68556;HTU21D;55544;51.032;5.866;2022-07-22T05:06:04;19.77;74.71
68556;HTU21D;55544;51.032;5.866;2022-07-22T05:08:36;19.81;74.33
68556;HTU21D;55544;51.032;5.866;2022-07-22T05:11:01;19.82;74.10
68556;HTU21D;55544;51.032;5.866;2022-07-22T05:13:27;19.84;74.18
68556;HTU21D;55544;51.032;5.866;2022-07-22T05:15:53;19.85;74.31
68556;HTU21D;55544;51.032;5.866;2022-07-22T05:18:19;19.88;74.33
68556;HTU21D;55544;51.032;5.866;2022-07-22T05:20:45;19.90;74.48
68556;HTU21D;55544;51.032;5.866;2022-07-22T05:23:10;19.96;74.37
68556;HTU21D;55544;51.032;5.866;2022-07-22T05:25:37;19.97;74.36
68556;HTU21D;55544;51.032;5.866;2022-07-22T05:28:04;20.00;74.45
68556;HTU21D;55544;51.032;5.866;2022-07-22T05:30:36;20.02;74.20
68556;HTU21D;55544;51.032;5.866;2022-07-22T05:33:03;20.06;74.19
68556;HTU21D;55544;51.032;5.866;2022-07-22T05:35:52;20.11;74.22
68556;HTU21D;55544;51.032;5.866;2022-07-22T05:38:19;20.11;74.06
68556;HTU21D;55544;51.032;5.866;2022-07-22T05:40:45;20.11;73.39
68556;HTU21D;55544;51.032;5.866;2022-07-22T05:43:11;20.13;73.15
68556;HTU21D;55544;51.032;5.866;2022-07-22T05:45:36;20.16;73.10
68556;HTU21D;55544;51.032;5.866;2022-07-22T05:48:02;20.19;72.90
68556;HTU21D;55544;51.032;5.866;2022-07-22T05:50:30;20.19;72.52
68556;HTU21D;55544;51.032;5.866;2022-07-22T05:52:56;20.19;72.32
68556;HTU21D;55544;51.032;5.866;2022-07-22T05:55:22;20.19;72.42
68556;HTU21D;55544;51.032;5.866;2022-07-22T05:57:48;20.16;72.38
68556;HTU21D;55544;51.032;5.866;2022-07-22T06:00:15;20.19;72.73
68556;HTU21D;55544;51.032;5.866;2022-07-22T06:02:42;20.25;72.70
68556;HTU21D;55544;51.032;5.866;2022-07-22T06:05:12;20.33;72.22
68556;HTU21D;55544;51.032;5.866;2022-07-22T06:07:38;20.34;72.14
68556;HTU21D;55544;51.032;5.866;2022-07-22T06:10:05;20.37;72.15
68556;HTU21D;55544;51.032;5.866;2022-07-22T06:12:33;20.41;71.80
68556;HTU21D;55544;51.032;5.866;2022-07-22T06:14:58;20.44;71.84
68556;HTU21D;55544;51.032;5.866;2022-07-22T06:17:24;20.48;71.99
68556;HTU21D;55544;51.032;5.866;2022-07-22T06:19:50;20.55;71.74
68556;HTU21D;55544;51.032;5.866;2022-07-22T06:22:16;20.60;71.58
68556;HTU21D;55544;51.032;5.866;2022-07-22T06:24:45;20.64;71.63
68556;HTU21D;55544;51.032;5.866;2022-07-22T06:27:12;20.69;71.22
68556;HTU21D;55544;51.032;5.866;2022-07-22T06:29:38;20.71;71.19
68556;HTU21D;55544;51.032;5.866;2022-07-22T06:32:04;20.76;71.15
68556;HTU21D;55544;51.032;5.866;2022-07-22T06:34:30;20.81;70.86
68556;HTU21D;55544;51.032;5.866;2022-07-22T06:37:06;20.87;70.70
68556;HTU21D;55544;51.032;5.866;2022-07-22T06:39:33;20.91;70.62
68556;HTU21D;55544;51.032;5.866;2022-07-22T06:42:20;21.01;70.04
68556;HTU21D;55544;51.032;5.866;2022-07-22T06:44:48;21.07;69.55
68556;HTU21D;55544;51.032;5.866;2022-07-22T06:47:33;21.14;69.26
68556;HTU21D;55544;51.032;5.866;2022-07-22T06:50:04;21.18;68.86
68556;HTU21D;55544;51.032;5.866;2022-07-22T06:52:29;21.21;68.97
68556;HTU21D;55544;51.032;5.866;2022-07-22T06:54:56;21.19;68.98
68556;HTU21D;55544;51.032;5.866;2022-07-22T06:57:26;21.16;68.95
68556;HTU21D;55544;51.032;5.866;2022-07-22T06:59:52;21.15;69.01
68556;HTU21D;55544;51.032;5.866;2022-07-22T07:02:18;21.17;68.60
68556;HTU21D;55544;51.032;5.866;2022-07-22T07:04:46;21.21;68.58
68556;HTU21D;55544;51.032;5.866;2022-07-22T07:07:12;21.25;68.50
68556;HTU21D;55544;51.032;5.866;2022-07-22T07:09:47;21.33;68.30
68556;HTU21D;55544;51.032;5.866;2022-07-22T07:12:19;21.39;67.78
68556;HTU21D;55544;51.032;5.866;2022-07-22T07:15:25;21.40;67.55
68556;HTU21D;55544;51.032;5.866;2022-07-22T07:17:52;21.44;67.59
68556;HTU21D;55544;51.032;5.866;2022-07-22T07:20:19;21.40;67.47
68556;HTU21D;55544;51.032;5.866;2022-07-22T07:22:44;21.40;67.43
68556;HTU21D;55544;51.032;5.866;2022-07-22T07:25:11;21.33;67.65
68556;HTU21D;55544;51.032;5.866;2022-07-22T07:27:37;21.33;67.81
68556;HTU21D;55544;51.032;5.866;2022-07-22T07:30:06;21.38;67.63
68556;HTU21D;55544;51.032;5.866;2022-07-22T07:32:35;21.39;68.01
68556;HTU21D;55544;51.032;5.866;2022-07-22T07:35:02;21.43;68.36
68556;HTU21D;55544;51.032;5.866;2022-07-22T07:37:28;21.38;68.58
68556;HTU21D;55544;51.032;5.866;2022-07-22T07:39:55;21.33;69.10
68556;HTU21D;55544;51.032;5.866;2022-07-22T07:42:21;21.27;69.27
68556;HTU21D;55544;51.032;5.866;2022-07-22T07:44:47;21.20;69.85
68556;HTU21D;55544;51.032;5.866;2022-07-22T07:47:13;21.18;70.16
68556;HTU21D;55544;51.032;5.866;2022-07-22T07:49:44;21.19;70.54
68556;HTU21D;55544;51.032;5.866;2022-07-22T07:52:10;21.34;70.84
68556;HTU21D;55544;51.032;5.866;2022-07-22T07:54:41;21.45;70.25
68556;HTU21D;55544;51.032;5.866;2022-07-22T07:57:08;21.52;69.71
68556;HTU21D;55544;51.032;5.866;2022-07-22T07:59:37;21.57;69.39
68556;HTU21D;55544;51.032;5.866;2022-07-22T08:02:04;21.57;69.55
68556;HTU21D;55544;51.032;5.866;2022-07-22T08:04:32;21.61;69.68
68556;HTU21D;55544;51.032;5.866;2022-07-22T08:06:58;21.65;69.18
68556;HTU21D;55544;51.032;5.866;2022-07-22T08:09:24;21.69;69.07
68556;HTU21D;55544;51.032;5.866;2022-07-22T08:11:50;21.76;68.68
68556;HTU21D;55544;51.032;5.866;2022-07-22T08:14:46;21.80;67.74
68556;HTU21D;55544;51.032;5.866;2022-07-22T08:17:33;21.78;68.01
68556;HTU21D;55544;51.032;5.866;2022-07-22T08:19:59;21.89;68.13
68556;HTU21D;55544;51.032;5.866;2022-07-22T08:22:24;22.03;68.13
68556;HTU21D;55544;51.032;5.866;2022-07-22T08:24:50;22.16;67.84
68556;HTU21D;55544;51.032;5.866;2022-07-22T08:27:18;22.32;67.50
68556;HTU21D;55544;51.032;5.866;2022-07-22T08:29:43;22.39;66.61
68556;HTU21D;55544;51.032;5.866;2022-07-22T08:32:09;22.58;66.16
68556;HTU21D;55544;51.032;5.866;2022-07-22T08:34:35;22.67;66.14
68556;HTU21D;55544;51.032;5.866;2022-07-22T08:37:01;22.87;65.66
68556;HTU21D;55544;51.032;5.866;2022-07-22T08:39:27;23.13;64.80
68556;HTU21D;55544;51.032;5.866;2022-07-22T08:41:54;23.32;63.59
68556;HTU21D;55544;51.032;5.866;2022-07-22T08:44:21;23.45;62.61
68556;HTU21D;55544;51.032;5.866;2022-07-22T08:46:47;23.52;61.28
68556;HTU21D;55544;51.032;5.866;2022-07-22T08:49:20;23.58;60.87
68556;HTU21D;55544;51.032;5.866;2022-07-22T08:52:11;23.58;61.17
68556;HTU21D;55544;51.032;5.866;2022-07-22T08:54:42;23.49;60.53
68556;HTU21D;55544;51.032;5.866;2022-07-22T08:57:09;23.46;60.33
68556;HTU21D;55544;51.032;5.866;2022-07-22T08:59:52;23.45;60.57
68556;HTU21D;55544;51.032;5.866;2022-07-22T09:02:18;23.49;60.15
68556;HTU21D;55544;51.032;5.866;2022-07-22T09:04:58;23.49;59.48
68556;HTU21D;55544;51.032;5.866;2022-07-22T09:07:30;23.43;58.79
68556;HTU21D;55544;51.032;5.866;2022-07-22T09:10:16;23.46;59.09
68556;HTU21D;55544;51.032;5.866;2022-07-22T09:13:10;23.56;58.85
68556;HTU21D;55544;51.032;5.866;2022-07-22T09:15:56;23.68;58.58
68556;HTU21D;55544;51.032;5.866;2022-07-22T09:18:51;23.69;57.96
68556;HTU21D;55544;51.032;5.866;2022-07-22T09:21:43;23.40;58.43
68556;HTU21D;55544;51.032;5.866;2022-07-22T09:24:30;23.15;59.63
68556;HTU21D;55544;51.032;5.866;2022-07-22T09:27:26;23.15;60.68
68556;HTU21D;55544;51.032;5.866;2022-07-22T09:30:26;23.15;60.19
68556;HTU21D;55544;51.032;5.866;2022-07-22T09:33:07;23.35;59.79
68556;HTU21D;55544;51.032;5.866;2022-07-22T09:35:38;23.70;60.22
68556;HTU21D;55544;51.032;5.866;2022-07-22T09:38:08;24.01;58.29
68556;HTU21D;55544;51.032;5.866;2022-07-22T09:40:37;24.32;57.14
68556;HTU21D;55544;51.032;5.866;2022-07-22T09:43:07;24.55;56.16
68556;HTU21D;55544;51.032;5.866;2022-07-22T09:45:49;24.55;55.62
68556;HTU21D;55544;51.032;5.866;2022-07-22T09:48:20;24.48;55.42
68556;HTU21D;55544;51.032;5.866;2022-07-22T09:51:07;24.68;55.22
68556;HTU21D;55544;51.032;5.866;2022-07-22T09:53:42;24.87;53.47
68556;HTU21D;55544;51.032;5.866;2022-07-22T09:56:10;24.86;53.58
68556;HTU21D;55544;51.032;5.866;2022-07-22T09:58:37;24.91;53.00
68556;HTU21D;55544;51.032;5.866;2022-07-22T10:01:10;24.97;52.62
68556;HTU21D;55544;51.032;5.866;2022-07-22T10:03:40;25.06;53.16
68556;HTU21D;55544;51.032;5.866;2022-07-22T10:06:08;25.12;52.74
68556;HTU21D;55544;51.032;5.866;2022-07-22T10:08:36;24.93;53.04
68556;HTU21D;55544;51.032;5.866;2022-07-22T10:11:06;24.76;53.67
68556;HTU21D;55544;51.032;5.866;2022-07-22T10:13:38;24.60;54.09
68556;HTU21D;55544;51.032;5.866;2022-07-22T10:16:06;24.41;54.47
68556;HTU21D;55544;51.032;5.866;2022-07-22T10:18:33;24.47;54.22
68556;HTU21D;55544;51.032;5.866;2022-07-22T10:21:09;24.57;55.14
68556;HTU21D;55544;51.032;5.866;2022-07-22T10:23:36;24.93;54.95
68556;HTU21D;55544;51.032;5.866;2022-07-22T10:26:04;25.40;52.75
68556;HTU21D;55544;51.032;5.866;2022-07-22T10:28:34;25.80;52.00
68556;HTU21D;55544;51.032;5.866;2022-07-22T10:31:20;25.98;50.95
68556;HTU21D;55544;51.032;5.866;2022-07-22T10:33:52;26.01;50.44
68556;HTU21D;55544;51.032;5.866;2022-07-22T10:36:38;25.95;50.61
68556;HTU21D;55544;51.032;5.866;2022-07-22T10:39:12;26.03;50.59
68556;HTU21D;55544;51.032;5.866;2022-07-22T10:41:44;26.32;50.21
68556;HTU21D;55544;51.032;5.866;2022-07-22T10:44:10;26.61;48.02
68556;HTU21D;55544;51.032;5.866;2022-07-22T10:46:55;26.80;47.98
68556;HTU21D;55544;51.032;5.866;2022-07-22T10:49:25;26.89;47.70
68556;HTU21D;55544;51.032;5.866;2022-07-22T10:54:32;27.14;47.06
68556;HTU21D;55544;51.032;5.866;2022-07-22T10:56:59;27.37;46.61
68556;HTU21D;55544;51.032;5.866;2022-07-22T10:59:26;27.47;45.98
68556;HTU21D;55544;51.032;5.866;2022-07-22T11:01:52;27.54;45.52
68556;HTU21D;55544;51.032;5.866;2022-07-22T11:04:25;27.73;44.99
68556;HTU21D;55544;51.032;5.866;2022-07-22T11:06:54;28.02;43.97
68556;HTU21D;55544;51.032;5.866;2022-07-22T11:09:22;28.20;43.20
68556;HTU21D;55544;51.032;5.866;2022-07-22T11:14:26;28.06;42.24
68556;HTU21D;55544;51.032;5.866;2022-07-22T11:16:55;27.72;42.83
68556;HTU21D;55544;51.032;5.866;2022-07-22T11:19:23;27.51;44.29
68556;HTU21D;55544;51.032;5.866;2022-07-22T11:21:55;27.44;44.90
68556;HTU21D;55544;51.032;5.866;2022-07-22T11:24:23;27.40;45.71
68556;HTU21D;55544;51.032;5.866;2022-07-22T11:26:51;27.40;45.75
68556;HTU21D;55544;51.032;5.866;2022-07-22T11:29:25;27.53;45.73
68556;HTU21D;55544;51.032;5.866;2022-07-22T11:31:53;27.69;45.28
68556;HTU21D;55544;51.032;5.866;2022-07-22T11:34:19;27.71;45.22
68556;HTU21D;55544;51.032;5.866;2022-07-22T11:36:49;27.59;44.54
68556;HTU21D;55544;51.032;5.866;2022-07-22T11:39:20;27.53;45.48
68556;HTU21D;55544;51.032;5.866;2022-07-22T11:41:46;27.98;45.16
68556;HTU21D;55544;51.032;5.866;2022-07-22T11:44:12;28.40;43.80
68556;HTU21D;55544;51.032;5.866;2022-07-22T11:46:40;28.74;43.02
68556;HTU21D;55544;51.032;5.866;2022-07-22T11:49:07;29.04;42.54
68556;HTU21D;55544;51.032;5.866;2022-07-22T11:51:36;29.16;41.36
68556;HTU21D;55544;51.032;5.866;2022-07-22T11:54:03;29.32;40.74
68556;HTU21D;55544;51.032;5.866;2022-07-22T11:56:30;29.45;40.83
68556;HTU21D;55544;51.032;5.866;2022-07-22T11:58:57;29.66;40.38
68556;HTU21D;55544;51.032;5.866;2022-07-22T12:01:25;29.86;40.03
68556;HTU21D;55544;51.032;5.866;2022-07-22T12:03:56;30.01;39.68
68556;HTU21D;55544;51.032;5.866;2022-07-22T12:06:24;30.12;39.75
68556;HTU21D;55544;51.032;5.866;2022-07-22T12:09:02;30.10;39.62
68556;HTU21D;55544;51.032;5.866;2022-07-22T12:11:28;30.07;39.91
68556;HTU21D;55544;51.032;5.866;2022-07-22T12:13:55;30.07;40.26
68556;HTU21D;55544;51.032;5.866;2022-07-22T12:16:22;30.09;40.26
68556;HTU21D;55544;51.032;5.866;2022-07-22T12:19:11;30.19;39.89
68556;HTU21D;55544;51.032;5.866;2022-07-22T12:22:01;30.44;39.01
68556;HTU21D;55544;51.032;5.866;2022-07-22T12:27:01;30.68;37.95
68556;HTU21D;55544;51.032;5.866;2022-07-22T12:32:00;30.70;38.04
68556;HTU21D;55544;51.032;5.866;2022-07-22T12:34:31;30.86;37.15
68556;HTU21D;55544;51.032;5.866;2022-07-22T12:37:00;31.05;37.12
68556;HTU21D;55544;51.032;5.866;2022-07-22T12:39:28;31.27;37.32
68556;HTU21D;55544;51.032;5.866;2022-07-22T12:41:54;31.43;36.88
68556;HTU21D;55544;51.032;5.866;2022-07-22T12:44:23;31.51;36.39
68556;HTU21D;55544;51.032;5.866;2022-07-22T12:46:53;31.68;36.63
68556;HTU21D;55544;51.032;5.866;2022-07-22T12:49:22;31.79;36.60
68556;HTU21D;55544;51.032;5.866;2022-07-22T12:52:12;31.87;36.50
68556;HTU21D;55544;51.032;5.866;2022-07-22T12:54:40;31.96;36.37
68556;HTU21D;55544;51.032;5.866;2022-07-22T12:57:08;31.98;36.09
68556;HTU21D;55544;51.032;5.866;2022-07-22T12:59:35;32.04;35.79
68556;HTU21D;55544;51.032;5.866;2022-07-22T13:02:02;32.16;35.44
68556;HTU21D;55544;51.032;5.866;2022-07-22T13:04:28;32.19;34.14
68556;HTU21D;55544;51.032;5.866;2022-07-22T13:06:54;31.99;34.67
68556;HTU21D;55544;51.032;5.866;2022-07-22T13:09:19;31.95;35.68
68556;HTU21D;55544;51.032;5.866;2022-07-22T13:11:45;31.95;36.00
68556;HTU21D;55544;51.032;5.866;2022-07-22T13:14:13;31.99;35.41
68556;HTU21D;55544;51.032;5.866;2022-07-22T13:16:39;32.10;35.37
68556;HTU21D;55544;51.032;5.866;2022-07-22T13:19:05;32.30;34.75
68556;HTU21D;55544;51.032;5.866;2022-07-22T13:21:31;32.53;34.44
68556;HTU21D;55544;51.032;5.866;2022-07-22T13:23:57;32.74;34.49
68556;HTU21D;55544;51.032;5.866;2022-07-22T13:26:23;32.89;34.18
68556;HTU21D;55544;51.032;5.866;2022-07-22T13:28:51;32.94;34.12
68556;HTU21D;55544;51.032;5.866;2022-07-22T13:31:17;33.00;34.15
68556;HTU21D;55544;51.032;5.866;2022-07-22T13:33:43;33.01;33.34
68556;HTU21D;55544;51.032;5.866;2022-07-22T13:36:08;32.77;33.15
68556;HTU21D;55544;51.032;5.866;2022-07-22T13:38:34;31.94;34.44
68556;HTU21D;55544;51.032;5.866;2022-07-22T13:41:00;31.31;36.54
68556;HTU21D;55544;51.032;5.866;2022-07-22T13:43:26;31.04;36.44
68556;HTU21D;55544;51.032;5.866;2022-07-22T13:45:52;31.12;37.66
68556;HTU21D;55544;51.032;5.866;2022-07-22T13:48:18;31.37;37.66
68556;HTU21D;55544;51.032;5.866;2022-07-22T13:50:46;31.52;36.99
68556;HTU21D;55544;51.032;5.866;2022-07-22T13:53:12;31.65;36.92
68556;HTU21D;55544;51.032;5.866;2022-07-22T13:55:39;31.70;36.30
68556;HTU21D;55544;51.032;5.866;2022-07-22T13:58:06;31.68;35.73
68556;HTU21D;55544;51.032;5.866;2022-07-22T14:00:33;31.66;36.15
68556;HTU21D;55544;51.032;5.866;2022-07-22T14:02:59;31.71;35.88
68556;HTU21D;55544;51.032;5.866;2022-07-22T14:05:25;31.78;35.45
68556;HTU21D;55544;51.032;5.866;2022-07-22T14:07:51;31.83;35.25
68556;HTU21D;55544;51.032;5.866;2022-07-22T14:10:17;31.94;35.40
68556;HTU21D;55544;51.032;5.866;2022-07-22T14:12:43;32.12;35.26
68556;HTU21D;55544;51.032;5.866;2022-07-22T14:15:09;32.39;34.91
68556;HTU21D;55544;51.032;5.866;2022-07-22T14:17:35;32.55;35.13
68556;HTU21D;55544;51.032;5.866;2022-07-22T14:20:01;32.68;34.63
68556;HTU21D;55544;51.032;5.866;2022-07-22T14:22:28;32.69;34.29
68556;HTU21D;55544;51.032;5.866;2022-07-22T14:24:56;32.61;33.72
68556;HTU21D;55544;51.032;5.866;2022-07-22T14:27:22;32.58;34.53
68556;HTU21D;55544;51.032;5.866;2022-07-22T14:29:48;32.63;34.76
68556;HTU21D;55544;51.032;5.866;2022-07-22T14:32:13;32.48;34.24
68556;HTU21D;55544;51.032;5.866;2022-07-22T14:34:39;32.05;34.84
68556;HTU21D;55544;51.032;5.866;2022-07-22T14:37:05;31.65;35.54
68556;HTU21D;55544;51.032;5.866;2022-07-22T14:39:31;31.19;36.52
68556;HTU21D;55544;51.032;5.866;2022-07-22T14:41:57;30.96;37.08
68556;HTU21D;55544;51.032;5.866;2022-07-22T14:44:24;30.86;37.53
68556;HTU21D;55544;51.032;5.866;2022-07-22T14:46:50;30.93;37.53
68556;HTU21D;55544;51.032;5.866;2022-07-22T14:49:15;31.05;36.86
68556;HTU21D;55544;51.032;5.866;2022-07-22T14:51:43;31.21;36.40
68556;HTU21D;55544;51.032;5.866;2022-07-22T14:54:09;31.37;36.23
68556;HTU21D;55544;51.032;5.866;2022-07-22T14:56:39;31.55;36.01
68556;HTU21D;55544;51.032;5.866;2022-07-22T14:59:06;31.83;35.38
68556;HTU21D;55544;51.032;5.866;2022-07-22T15:01:33;32.05;34.46
68556;HTU21D;55544;51.032;5.866;2022-07-22T15:03:58;32.20;34.36
68556;HTU21D;55544;51.032;5.866;2022-07-22T15:06:24;32.29;34.85
68556;HTU21D;55544;51.032;5.866;2022-07-22T15:08:50;32.30;35.06
68556;HTU21D;55544;51.032;5.866;2022-07-22T15:11:15;32.30;34.99
68556;HTU21D;55544;51.032;5.866;2022-07-22T15:13:41;32.29;35.31
68556;HTU21D;55544;51.032;5.866;2022-07-22T15:16:08;32.45;34.91
68556;HTU21D;55544;51.032;5.866;2022-07-22T15:18:35;32.58;34.34
68556;HTU21D;55544;51.032;5.866;2022-07-22T15:21:01;32.74;33.92
68556;HTU21D;55544;51.032;5.866;2022-07-22T15:23:26;32.63;33.58
68556;HTU21D;55544;51.032;5.866;2022-07-22T15:25:57;32.41;33.90
68556;HTU21D;55544;51.032;5.866;2022-07-22T15:28:27;32.45;34.57
68556;HTU21D;55544;51.032;5.866;2022-07-22T15:30:56;32.55;34.70
68556;HTU21D;55544;51.032;5.866;2022-07-22T15:33:21;32.69;34.34
68556;HTU21D;55544;51.032;5.866;2022-07-22T15:35:47;32.90;34.08